Dennis Mills, Louisiana
Current Conditions -  °F | °C
As of 7:53 PM on Friday 28 Nov 2014 (Local Time) from KBTR Reporting Station
Clear Clear  
Wind Chill: 46°   Ceiling: Unl
Heat Index: 49°   Visibility: 10mi
Dew Point: 42°   Wind: 7mph
Humidity: 77%   Direction: 120°ESE
Pressure: 30.27"   Gusts: NA
Location:  30.421°N, 90.9008°W
Report Text: KBTR 290153Z 12006KT 10SM CLR 09/06 A3027 RMK AO2 SLP251 T00940056
Loading
Personal Weather Stations






























Interactive Weather Map New forecast layout! Learn more

10-Day Weather Forecast

Advertisements
Track Severe Weather on mobile